Amherst, Texas
Current Conditions -  °F | °C
As of 10:15 PM on Friday 24 Oct 2014 (Local Time) from KPVW Reporting Station
Clear Clear  
Wind Chill: 16°   Ceiling: Unl
Heat Index: 16°   Visibility: 10mi
Dew Point: 11°   Wind: 6mph
Humidity: 75%   Direction: 200°SSW
Pressure: 30.15"   Gusts: NA
Location:  34.01°N, 102.42°W
Report Text: KPVW 250315Z AUTO 20005KT 10SM CLR 16/11 A3015 RMK AO2 T01570112
Loading
Personal Weather Stations






























Interactive Weather Map
Tropical Storm Tracking
New forecast layout! Learn more

10-Day Weather Forecast

Advertisements
Track Severe Weather on mobile